Terminal Aerodrome Forecast
Issued by NWS

Current Version | Previous Version | Text Only | Print | Product List | Glossary On
Versions: 1 2 3 4 5 6 7 8 9 10 11 12 13 14 15
000
FTUS41 KLWX 271726
TAFMTN
TAF
KMTN 271726Z 2718/2818 11016KT 2SM SHRA OVC015
     FM271900 13016KT 3SM -SHRA OVC020
     FM272200 14017G25KT 2SM +TSRA OVC015CB
     FM280300 16008KT 3SM SHRA OVC020
     FM280500 24006KT 5SM -SHRA OVC025
     FM280900 27008KT P6SM SCT060
     FM281300 26012KT P6SM SCT090
     FM281700 26016KT P6SM BKN045=

USA.gov is the U.S. government's official web portal to all federal, state and local government web resources and services.